Time;durP1;ratioP1;P1;durP2;ratioP2;P2;SDS_P1;SDS_P2;PMS_P1;PMS_P2;Temp;Humidity;BMP_temperature;BMP_pressure;BME280_temperature;BME280_humidity;BME280_pressure;Samples;Min_cycle;Max_cycle;Signal;HPM_P1;HPM_P2
2023/09/18 00:00:44;;;;;;;5.43;3.20;;;;;;;;;;4972743;28;20830;-57
2023/09/18 00:03:10;;;;;;;6.50;3.30;;;;;;;;;;4973281;28;20862;-57
2023/09/18 00:05:36;;;;;;;7.33;3.47;;;;;;;;;;4971873;28;20492;-57
2023/09/18 00:08:02;;;;;;;4.20;3.33;;;;;;;;;;4972990;28;20453;-57
2023/09/18 00:10:30;;;;;;;12.13;3.87;;;;;;;;;;4973358;28;20487;-57
2023/09/18 00:12:56;;;;;;;7.80;3.53;;;;;;;;;;4973005;28;20913;-56
2023/09/18 00:15:22;;;;;;;14.80;3.40;;;;;;;;;;4972919;28;20541;-56
2023/09/18 00:17:50;;;;;;;4.63;3.27;;;;;;;;;;4973172;28;20516;-56
2023/09/18 00:20:17;;;;;;;17.33;4.10;;;;;;;;;;4972950;28;20438;-57
2023/09/18 00:22:43;;;;;;;9.63;4.27;;;;;;;;;;4971818;28;20424;-56
2023/09/18 00:25:09;;;;;;;3.90;3.60;;;;;;;;;;4973101;28;20450;-57
2023/09/18 00:27:36;;;;;;;6.53;3.67;;;;;;;;;;4972786;28;20425;-57
2023/09/18 00:30:02;;;;;;;5.00;3.17;;;;;;;;;;4974358;28;20792;-57
2023/09/18 00:32:28;;;;;;;8.93;3.73;;;;;;;;;;4976402;28;20420;-56
2023/09/18 00:34:57;;;;;;;7.40;3.70;;;;;;;;;;4976823;28;20471;-57
2023/09/18 00:37:26;;;;;;;6.30;3.53;;;;;;;;;;4976635;28;20412;-57
2023/09/18 00:39:51;;;;;;;13.80;3.53;;;;;;;;;;4975521;28;20424;-57
2023/09/18 00:42:17;;;;;;;5.90;3.50;;;;;;;;;;4976653;28;20422;-57
2023/09/18 00:44:46;;;;;;;10.30;4.47;;;;;;;;;;4976088;28;20416;-57
2023/09/18 00:47:13;;;;;;;6.63;4.40;;;;;;;;;;4976073;28;20485;-57
2023/09/18 00:49:40;;;;;;;11.93;4.03;;;;;;;;;;4976529;28;20605;-56
2023/09/18 00:52:06;;;;;;;8.03;3.27;;;;;;;;;;4976512;28;20422;-57
2023/09/18 00:54:33;;;;;;;10.90;3.83;;;;;;;;;;4976271;28;20473;-57
2023/09/18 00:57:00;;;;;;;6.03;4.50;;;;;;;;;;4976533;28;20422;-57
2023/09/18 00:59:26;;;;;;;9.00;3.83;;;;;;;;;;4976096;28;20413;-57
2023/09/18 01:01:53;;;;;;;5.47;3.83;;;;;;;;;;4976125;28;20833;-57
2023/09/18 01:04:19;;;;;;;15.93;3.77;;;;;;;;;;4976145;28;20414;-57
2023/09/18 01:06:45;;;;;;;13.73;3.97;;;;;;;;;;4976133;28;20491;-57
2023/09/18 01:09:14;;;;;;;6.47;3.70;;;;;;;;;;4976113;28;20440;-57
2023/09/18 01:11:40;;;;;;;10.77;3.53;;;;;;;;;;4976046;28;20846;-57
2023/09/18 01:14:06;;;;;;;7.70;3.93;;;;;;;;;;4976318;28;20512;-57
2023/09/18 01:16:40;;;;;;;6.90;3.70;;;;;;;;;;4975884;28;20503;-57
2023/09/18 01:19:08;;;;;;;9.20;3.80;;;;;;;;;;4975378;28;20503;-57
2023/09/18 01:21:37;;;;;;;7.90;3.90;;;;;;;;;;4975671;28;21017;-57
2023/09/18 01:24:03;;;;;;;8.07;3.90;;;;;;;;;;4975718;28;20422;-57
2023/09/18 01:26:30;;;;;;;7.00;4.20;;;;;;;;;;4976053;28;21005;-57
2023/09/18 01:28:56;;;;;;;6.07;4.03;;;;;;;;;;4975853;28;20430;-57
2023/09/18 01:31:22;;;;;;;6.43;3.93;;;;;;;;;;4975722;28;20439;-57
2023/09/18 01:33:50;;;;;;;12.07;4.40;;;;;;;;;;4975484;28;20893;-57
2023/09/18 01:36:17;;;;;;;6.50;3.47;;;;;;;;;;4975662;28;20469;-57
2023/09/18 01:38:43;;;;;;;10.37;4.00;;;;;;;;;;4975328;28;20424;-57
2023/09/18 01:41:09;;;;;;;7.47;4.17;;;;;;;;;;4975653;28;20778;-57
2023/09/18 01:43:38;;;;;;;6.00;3.67;;;;;;;;;;4975383;28;20490;-57
2023/09/18 01:46:04;;;;;;;10.97;3.67;;;;;;;;;;4975314;28;20438;-57
2023/09/18 01:48:30;;;;;;;15.77;4.20;;;;;;;;;;4975435;28;20474;-57
2023/09/18 01:50:56;;;;;;;4.33;3.53;;;;;;;;;;4975153;28;20426;-57
2023/09/18 01:53:22;;;;;;;10.20;3.73;;;;;;;;;;4975543;28;20433;-57
2023/09/18 01:55:48;;;;;;;9.17;3.97;;;;;;;;;;4975349;28;20488;-57
2023/09/18 01:58:14;;;;;;;12.17;4.13;;;;;;;;;;4975449;28;20906;-57
2023/09/18 02:00:42;;;;;;;8.30;4.00;;;;;;;;;;4975384;28;20470;-57
2023/09/18 02:03:08;;;;;;;7.93;3.77;;;;;;;;;;4975189;28;20884;-57
2023/09/18 02:05:36;;;;;;;7.07;3.50;;;;;;;;;;4975219;28;20444;-56
2023/09/18 02:08:02;;;;;;;5.70;3.70;;;;;;;;;;4974893;28;20423;-56
2023/09/18 02:10:29;;;;;;;12.50;3.80;;;;;;;;;;4975194;28;20477;-57
2023/09/18 02:12:55;;;;;;;17.63;4.70;;;;;;;;;;4974884;28;20427;-57
2023/09/18 02:15:21;;;;;;;22.10;4.40;;;;;;;;;;4975116;28;20473;-57
2023/09/18 02:17:47;;;;;;;13.90;4.13;;;;;;;;;;4975079;28;20426;-57
2023/09/18 02:20:13;;;;;;;10.17;4.30;;;;;;;;;;4974722;28;20471;-57
2023/09/18 02:22:41;;;;;;;6.20;4.10;;;;;;;;;;4975070;28;20452;-57
2023/09/18 02:25:07;;;;;;;8.30;4.07;;;;;;;;;;4974551;28;20425;-57
2023/09/18 02:27:33;;;;;;;8.77;4.07;;;;;;;;;;4974152;28;20435;-57
2023/09/18 02:29:59;;;;;;;21.70;4.30;;;;;;;;;;4974290;28;20421;-57
2023/09/18 02:32:25;;;;;;;22.60;5.63;;;;;;;;;;4974695;28;20431;-58
2023/09/18 02:34:51;;;;;;;22.70;8.30;;;;;;;;;;4974660;28;20522;-58
2023/09/18 02:37:17;;;;;;;21.63;7.47;;;;;;;;;;4974547;28;20415;-57
2023/09/18 02:39:43;;;;;;;32.33;8.83;;;;;;;;;;4975088;28;20918;-56
2023/09/18 02:42:09;;;;;;;24.03;8.77;;;;;;;;;;4974719;28;20415;-57
2023/09/18 02:44:35;;;;;;;22.57;7.30;;;;;;;;;;4974667;28;20587;-57
2023/09/18 02:47:01;;;;;;;27.80;9.23;;;;;;;;;;4974182;28;20421;-57
2023/09/18 02:49:27;;;;;;;28.27;8.63;;;;;;;;;;4973782;28;20446;-57
2023/09/18 02:51:53;;;;;;;34.27;8.80;;;;;;;;;;4956367;28;20435;-57
2023/09/18 02:54:19;;;;;;;30.27;8.50;;;;;;;;;;4971670;28;20402;-57
2023/09/18 02:56:45;;;;;;;27.20;9.77;;;;;;;;;;4973647;28;20436;-57
2023/09/18 02:59:11;;;;;;;26.47;7.97;;;;;;;;;;4972798;28;20881;-57
2023/09/18 03:01:40;;;;;;;25.80;8.50;;;;;;;;;;4973734;28;20430;-57
2023/09/18 03:04:06;;;;;;;16.80;6.60;;;;;;;;;;4973579;28;20417;-57
2023/09/18 03:06:33;;;;;;;23.67;7.77;;;;;;;;;;4973533;28;20439;-57
2023/09/18 03:08:58;;;;;;;35.77;7.70;;;;;;;;;;4973298;28;20476;-57
2023/09/18 03:11:27;;;;;;;24.97;6.10;;;;;;;;;;4972980;28;20982;-57
2023/09/18 03:13:53;;;;;;;17.43;5.87;;;;;;;;;;4973067;28;20415;-57
2023/09/18 03:16:19;;;;;;;13.97;5.73;;;;;;;;;;4973032;28;20466;-57
2023/09/18 03:18:45;;;;;;;12.33;5.30;;;;;;;;;;4973285;28;20484;-57
2023/09/18 03:21:11;;;;;;;13.40;5.47;;;;;;;;;;4972524;28;20410;-57
2023/09/18 03:23:39;;;;;;;12.77;5.00;;;;;;;;;;4972534;28;20439;-57
2023/09/18 03:26:05;;;;;;;12.73;4.10;;;;;;;;;;4972706;28;20513;-57
2023/09/18 03:28:31;;;;;;;14.63;5.60;;;;;;;;;;4972678;28;20515;-57
2023/09/18 03:30:58;;;;;;;14.60;5.00;;;;;;;;;;4973137;28;20414;-57
2023/09/18 03:33:24;;;;;;;12.40;5.07;;;;;;;;;;4972992;28;20913;-57
2023/09/18 03:35:54;;;;;;;10.07;3.80;;;;;;;;;;4973006;28;20481;-57
2023/09/18 03:38:20;;;;;;;16.03;4.47;;;;;;;;;;4972872;28;20407;-57
2023/09/18 03:40:49;;;;;;;5.53;4.07;;;;;;;;;;4972867;28;20533;-57
2023/09/18 03:43:17;;;;;;;10.37;3.80;;;;;;;;;;4972365;28;20902;-57
2023/09/18 03:45:45;;;;;;;8.00;3.27;;;;;;;;;;4972616;28;20884;-57
2023/09/18 03:48:11;;;;;;;7.53;3.33;;;;;;;;;;4935653;28;1060601;-57
2023/09/18 03:50:38;;;;;;;15.47;3.87;;;;;;;;;;4973661;28;20282;-57
2023/09/18 03:53:04;;;;;;;13.70;3.47;;;;;;;;;;4972249;28;20927;-57
2023/09/18 03:55:30;;;;;;;4.60;2.80;;;;;;;;;;4973371;28;20493;-57
2023/09/18 03:57:56;;;;;;;10.63;3.17;;;;;;;;;;4973253;28;20887;-57
2023/09/18 04:00:23;;;;;;;7.30;3.10;;;;;;;;;;4971621;28;20429;-57
2023/09/18 04:02:51;;;;;;;5.43;2.97;;;;;;;;;;4973205;28;20436;-57
2023/09/18 04:05:22;;;;;;;5.30;2.60;;;;;;;;;;4972230;28;20431;-56
2023/09/18 04:07:48;;;;;;;13.67;3.70;;;;;;;;;;4972944;28;20532;-57
2023/09/18 04:10:22;;;;;;;3.33;3.03;;;;;;;;;;4973317;28;20512;-57
2023/09/18 04:12:50;;;;;;;3.57;2.80;;;;;;;;;;4972827;28;20418;-57
2023/09/18 04:15:18;;;;;;;9.47;4.90;;;;;;;;;;4972739;28;20587;-57
2023/09/18 04:17:46;;;;;;;14.07;7.77;;;;;;;;;;4973284;28;20410;-57
2023/09/18 04:20:13;;;;;;;3.70;2.73;;;;;;;;;;4973239;28;20448;-57
2023/09/18 04:22:43;;;;;;;5.20;2.97;;;;;;;;;;4973216;28;20434;-57
2023/09/18 04:25:09;;;;;;;5.70;2.57;;;;;;;;;;4973022;28;20443;-57
2023/09/18 04:27:35;;;;;;;5.30;2.50;;;;;;;;;;4973187;28;20891;-57
2023/09/18 04:30:03;;;;;;;54.57;39.43;;;;;;;;;;4972952;28;20411;-57
2023/09/18 04:32:30;;;;;;;12.37;7.50;;;;;;;;;;4973160;28;20434;-57
2023/09/18 04:34:59;;;;;;;4.00;2.33;;;;;;;;;;4972950;28;20473;-57
2023/09/18 04:37:25;;;;;;;10.60;3.10;;;;;;;;;;4972396;28;20419;-57
2023/09/18 04:39:51;;;;;;;6.40;3.03;;;;;;;;;;4973014;28;20428;-57
2023/09/18 04:42:17;;;;;;;12.00;5.70;;;;;;;;;;4973057;28;20429;-57
2023/09/18 04:44:43;;;;;;;9.00;4.57;;;;;;;;;;4973159;28;20466;-56
2023/09/18 04:47:09;;;;;;;15.10;6.33;;;;;;;;;;4972953;28;20450;-57
2023/09/18 04:49:35;;;;;;;9.40;3.43;;;;;;;;;;4972655;28;20926;-57
2023/09/18 04:52:01;;;;;;;2.73;2.50;;;;;;;;;;4973049;28;20439;-57
2023/09/18 04:54:27;;;;;;;4.07;2.20;;;;;;;;;;4972741;28;20450;-57
2023/09/18 04:56:52;;;;;;;2.03;1.93;;;;;;;;;;4972916;28;20415;-57
2023/09/18 04:59:19;;;;;;;2.00;1.20;;;;;;;;;;4973051;28;20506;-57
2023/09/18 05:01:45;;;;;;;1.83;1.73;;;;;;;;;;4972630;28;20445;-57
2023/09/18 05:04:14;;;;;;;4.50;2.80;;;;;;;;;;4972856;28;20439;-57
2023/09/18 05:06:41;;;;;;;5.20;2.20;;;;;;;;;;4973142;28;20429;-58
2023/09/18 05:09:07;;;;;;;2.67;2.10;;;;;;;;;;4972911;28;20438;-57
2023/09/18 05:11:36;;;;;;;6.47;2.23;;;;;;;;;;4973064;28;20410;-57
2023/09/18 05:14:02;;;;;;;2.30;1.90;;;;;;;;;;4973100;28;20875;-57
2023/09/18 05:16:28;;;;;;;7.43;2.27;;;;;;;;;;4974472;28;20639;-57
2023/09/18 05:18:59;;;;;;;2.03;1.93;;;;;;;;;;4976474;28;20411;-57
2023/09/18 05:21:26;;;;;;;8.63;1.77;;;;;;;;;;4975788;28;20974;-57
2023/09/18 05:23:53;;;;;;;2.70;2.13;;;;;;;;;;4975809;28;20419;-57
2023/09/18 05:26:24;;;;;;;4.30;2.30;;;;;;;;;;4976164;28;20441;-57
2023/09/18 05:28:50;;;;;;;3.90;2.20;;;;;;;;;;4974712;28;20423;-57
2023/09/18 05:31:16;;;;;;;1.97;1.87;;;;;;;;;;4976036;28;20457;-57
2023/09/18 05:33:42;;;;;;;6.33;2.00;;;;;;;;;;4975769;28;20916;-57
2023/09/18 05:36:09;;;;;;;3.90;2.00;;;;;;;;;;4975871;28;20573;-57
2023/09/18 05:38:35;;;;;;;7.43;1.80;;;;;;;;;;4975799;28;20414;-57
2023/09/18 05:41:01;;;;;;;5.93;2.20;;;;;;;;;;4975918;28;20502;-57
2023/09/18 05:43:26;;;;;;;2.10;2.00;;;;;;;;;;4975649;28;20425;-57
2023/09/18 05:45:52;;;;;;;6.30;2.00;;;;;;;;;;4975556;28;20417;-57
2023/09/18 05:48:19;;;;;;;2.30;2.10;;;;;;;;;;4975524;28;20461;-57
2023/09/18 05:50:47;;;;;;;10.03;1.87;;;;;;;;;;4974309;28;20440;-57
2023/09/18 05:53:13;;;;;;;3.00;2.20;;;;;;;;;;4975536;28;20447;-57
2023/09/18 05:55:40;;;;;;;2.40;2.13;;;;;;;;;;4975511;28;20469;-57
2023/09/18 05:58:07;;;;;;;1.90;1.80;;;;;;;;;;4975092;28;20422;-57
2023/09/18 06:00:33;;;;;;;4.00;2.00;;;;;;;;;;4975448;28;20921;-57
2023/09/18 06:02:59;;;;;;;3.47;2.00;;;;;;;;;;4975303;28;20414;-57
2023/09/18 06:05:25;;;;;;;2.30;2.07;;;;;;;;;;4975172;28;20442;-57
2023/09/18 06:07:51;;;;;;;4.03;1.80;;;;;;;;;;4975227;28;20471;-57
2023/09/18 06:10:18;;;;;;;4.13;2.53;;;;;;;;;;4975725;28;20797;-57
2023/09/18 06:12:45;;;;;;;4.27;2.10;;;;;;;;;;4974995;28;20929;-57
2023/09/18 06:15:11;;;;;;;3.83;1.60;;;;;;;;;;4975046;28;20919;-57
2023/09/18 06:17:39;;;;;;;2.27;2.07;;;;;;;;;;4975198;28;20442;-57
2023/09/18 06:20:05;;;;;;;2.77;2.47;;;;;;;;;;4975115;28;20424;-57
2023/09/18 06:22:31;;;;;;;4.80;2.77;;;;;;;;;;4975092;28;20412;-57
2023/09/18 06:25:00;;;;;;;4.03;2.60;;;;;;;;;;4975008;28;20437;-57
2023/09/18 06:27:26;;;;;;;4.53;2.23;;;;;;;;;;4973896;28;20561;-57
2023/09/18 06:29:52;;;;;;;10.80;2.23;;;;;;;;;;4973832;28;20502;-57
2023/09/18 06:32:17;;;;;;;8.80;2.30;;;;;;;;;;4974123;28;20534;-57
2023/09/18 06:34:44;;;;;;;3.07;1.80;;;;;;;;;;4974822;28;21027;-57
2023/09/18 06:37:12;;;;;;;8.20;2.27;;;;;;;;;;4974812;28;20805;-57
2023/09/18 06:39:38;;;;;;;2.53;2.30;;;;;;;;;;4974925;28;21210;-57
2023/09/18 06:42:05;;;;;;;8.53;2.20;;;;;;;;;;4974553;28;20416;-57
2023/09/18 06:44:31;;;;;;;6.80;2.30;;;;;;;;;;4974766;28;20433;-57
2023/09/18 06:46:59;;;;;;;5.20;2.30;;;;;;;;;;4974058;28;20417;-57
2023/09/18 06:49:25;;;;;;;4.40;1.93;;;;;;;;;;4974886;28;20430;-57
2023/09/18 06:51:51;;;;;;;6.23;2.37;;;;;;;;;;4973149;28;20411;-57
2023/09/18 06:54:19;;;;;;;4.03;2.53;;;;;;;;;;4974382;28;20831;-57
2023/09/18 06:56:45;;;;;;;4.37;2.33;;;;;;;;;;4974845;28;20470;-57
2023/09/18 06:59:14;;;;;;;3.53;2.30;;;;;;;;;;4974696;28;20417;-57
2023/09/18 07:01:41;;;;;;;6.83;2.47;;;;;;;;;;4974661;28;20408;-57
2023/09/18 07:04:07;;;;;;;6.60;1.97;;;;;;;;;;4974424;28;20486;-57
2023/09/18 07:06:33;;;;;;;5.50;1.83;;;;;;;;;;4974711;28;20829;-57
2023/09/18 07:08:59;;;;;;;2.60;2.00;;;;;;;;;;4974627;28;20442;-57
2023/09/18 07:11:26;;;;;;;7.53;2.77;;;;;;;;;;4973110;28;20573;-57
2023/09/18 07:13:52;;;;;;;2.90;1.60;;;;;;;;;;4974164;28;20418;-57
2023/09/18 07:16:18;;;;;;;5.57;1.90;;;;;;;;;;4974310;28;20470;-56
2023/09/18 07:18:44;;;;;;;5.80;2.57;;;;;;;;;;4973854;28;20498;-57
2023/09/18 07:21:10;;;;;;;5.37;3.40;;;;;;;;;;4974114;28;20419;-57
2023/09/18 07:23:37;;;;;;;6.63;3.30;;;;;;;;;;4974209;28;20411;-57
2023/09/18 07:26:03;;;;;;;4.87;3.90;;;;;;;;;;4974242;28;20417;-56
2023/09/18 07:28:29;;;;;;;12.67;9.17;;;;;;;;;;4972811;28;20938;-56
2023/09/18 07:30:55;;;;;;;18.17;4.70;;;;;;;;;;4974412;28;20427;-56
2023/09/18 07:33:21;;;;;;;36.47;17.20;;;;;;;;;;4973734;28;20421;-57
2023/09/18 07:35:51;;;;;;;15.60;10.50;;;;;;;;;;4974326;28;20481;-56
2023/09/18 07:38:19;;;;;;;3.50;3.20;;;;;;;;;;4973601;28;20415;-56
2023/09/18 07:40:45;;;;;;;3.87;2.47;;;;;;;;;;4973724;28;20443;-56
2023/09/18 07:43:12;;;;;;;4.63;2.60;;;;;;;;;;4973955;28;20867;-57
2023/09/18 07:45:39;;;;;;;11.90;2.60;;;;;;;;;;4974001;28;20927;-57
2023/09/18 07:48:08;;;;;;;3.90;1.90;;;;;;;;;;4973707;28;20453;-56
2023/09/18 07:50:37;;;;;;;2.03;1.77;;;;;;;;;;4973809;28;20415;-56
2023/09/18 07:53:03;;;;;;;4.50;2.10;;;;;;;;;;4973788;28;20439;-56
2023/09/18 07:55:30;;;;;;;4.40;2.23;;;;;;;;;;4973574;28;20858;-56
2023/09/18 07:57:56;;;;;;;5.30;2.43;;;;;;;;;;4973961;28;20421;-56
2023/09/18 08:00:22;;;;;;;3.70;2.07;;;;;;;;;;4973549;28;20873;-56
2023/09/18 08:02:49;;;;;;;4.30;2.40;;;;;;;;;;4973654;28;20459;-58
2023/09/18 08:05:16;;;;;;;5.33;2.30;;;;;;;;;;4973769;28;20451;-59
2023/09/18 08:07:42;;;;;;;2.00;1.80;;;;;;;;;;4973673;28;20423;-58
2023/09/18 08:10:08;;;;;;;3.47;1.80;;;;;;;;;;4973364;28;20466;-59
2023/09/18 08:12:34;;;;;;;3.37;1.90;;;;;;;;;;4973066;28;20423;-58
2023/09/18 08:15:06;;;;;;;1.73;1.43;;;;;;;;;;4972954;28;20465;-57
2023/09/18 08:17:32;;;;;;;3.77;1.50;;;;;;;;;;4973259;28;20431;-57
2023/09/18 08:19:58;;;;;;;5.33;1.53;;;;;;;;;;4973498;28;20419;-58
2023/09/18 08:22:24;;;;;;;2.53;2.43;;;;;;;;;;4973640;28;20417;-58
2023/09/18 08:24:53;;;;;;;2.17;1.93;;;;;;;;;;4973819;28;20428;-58
2023/09/18 08:27:21;;;;;;;4.57;2.27;;;;;;;;;;4973107;28;20442;-58
2023/09/18 08:29:47;;;;;;;1.77;1.63;;;;;;;;;;4973225;28;20426;-58
2023/09/18 08:32:13;;;;;;;10.13;2.30;;;;;;;;;;4973753;28;20406;-59
2023/09/18 08:34:39;;;;;;;5.63;2.10;;;;;;;;;;4973214;28;20891;-59
2023/09/18 08:37:06;;;;;;;1.83;1.47;;;;;;;;;;4973520;28;20413;-59
2023/09/18 08:39:32;;;;;;;2.83;1.63;;;;;;;;;;4973310;28;20401;-59
2023/09/18 08:42:05;;;;;;;5.80;2.47;;;;;;;;;;4971925;28;20842;-59
2023/09/18 08:44:33;;;;;;;2.77;2.30;;;;;;;;;;4973051;28;20922;-60
2023/09/18 08:47:00;;;;;;;5.03;1.83;;;;;;;;;;4972816;28;20414;-59
2023/09/18 08:49:27;;;;;;;2.60;1.47;;;;;;;;;;4973167;28;20430;-59
2023/09/18 08:51:54;;;;;;;2.97;1.60;;;;;;;;;;4975870;28;20929;-59
2023/09/18 08:54:21;;;;;;;2.30;2.03;;;;;;;;;;4976565;28;20411;-60
2023/09/18 08:56:47;;;;;;;5.50;1.80;;;;;;;;;;4976392;28;20481;-59
2023/09/18 08:59:13;;;;;;;4.80;2.00;;;;;;;;;;4976763;28;20415;-59
2023/09/18 09:01:39;;;;;;;4.50;1.43;;;;;;;;;;4976591;28;20438;-60
2023/09/18 09:04:06;;;;;;;7.03;1.70;;;;;;;;;;4976297;28;20501;-59
2023/09/18 09:06:32;;;;;;;1.70;1.60;;;;;;;;;;4976364;28;20422;-60
2023/09/18 09:09:01;;;;;;;2.53;1.30;;;;;;;;;;4976254;28;20442;-59
2023/09/18 09:11:27;;;;;;;3.20;1.37;;;;;;;;;;4977018;28;20489;-60
2023/09/18 09:14:11;;;;;;;8.13;1.97;;;;;;;;;;4976733;28;20419;-59
2023/09/18 09:16:40;;;;;;;3.33;2.00;;;;;;;;;;4976554;28;20597;-60
2023/09/18 09:19:06;;;;;;;2.93;2.37;;;;;;;;;;4976439;28;20454;-59
2023/09/18 09:21:43;;;;;;;6.23;3.30;;;;;;;;;;4976422;28;20416;-59
2023/09/18 09:24:13;;;;;;;3.67;2.53;;;;;;;;;;4976534;28;20503;-59
2023/09/18 09:26:40;;;;;;;7.03;1.67;;;;;;;;;;4976223;28;20461;-60
2023/09/18 09:29:35;;;;;;;2.80;1.87;;;;;;;;;;4976100;28;20431;-59
2023/09/18 09:32:19;;;;;;;6.07;1.43;;;;;;;;;;4971871;28;20442;-58
2023/09/18 09:34:46;;;;;;;2.30;1.80;;;;;;;;;;4976390;28;20847;-59
2023/09/18 09:37:14;;;;;;;4.10;2.10;;;;;;;;;;4976082;28;20447;-58
2023/09/18 09:39:48;;;;;;;1.50;1.40;;;;;;;;;;4976261;28;20412;-59
2023/09/18 09:42:18;;;;;;;5.43;1.70;;;;;;;;;;4976228;28;20427;-59
2023/09/18 09:44:45;;;;;;;4.00;1.83;;;;;;;;;;4976042;28;20440;-59
2023/09/18 09:47:14;;;;;;;1.70;1.60;;;;;;;;;;4975983;28;20435;-59
2023/09/18 09:49:49;;;;;;;3.80;1.60;;;;;;;;;;4975859;28;20516;-59
2023/09/18 09:52:22;;;;;;;3.67;1.83;;;;;;;;;;4975927;28;20890;-59
2023/09/18 09:54:48;;;;;;;3.03;1.33;;;;;;;;;;4975914;28;20840;-59
2023/09/18 09:57:14;;;;;;;4.90;2.50;;;;;;;;;;4975762;28;20442;-59
2023/09/18 09:59:44;;;;;;;4.20;1.93;;;;;;;;;;4974696;28;20861;-58
2023/09/18 10:02:14;;;;;;;1.60;1.50;;;;;;;;;;4975981;28;20807;-59
2023/09/18 10:04:43;;;;;;;6.60;1.50;;;;;;;;;;4975441;28;20423;-59
2023/09/18 10:07:09;;;;;;;1.70;1.50;;;;;;;;;;4975542;28;20424;-59
2023/09/18 10:09:36;;;;;;;5.53;2.43;;;;;;;;;;4975617;28;20891;-59
2023/09/18 10:12:06;;;;;;;5.53;1.70;;;;;;;;;;4975760;28;20440;-59
2023/09/18 10:14:35;;;;;;;3.27;1.70;;;;;;;;;;4975563;28;20425;-59
2023/09/18 10:17:07;;;;;;;6.10;1.53;;;;;;;;;;4975401;28;20578;-59
2023/09/18 10:20:00;;;;;;;4.60;1.20;;;;;;;;;;4975719;28;20889;-59
2023/09/18 10:22:37;;;;;;;1.83;1.40;;;;;;;;;;4975129;28;20986;-59
2023/09/18 10:25:15;;;;;;;7.43;3.97;;;;;;;;;;4974818;28;20444;-59
2023/09/18 10:27:43;;;;;;;2.00;1.70;;;;;;;;;;4975069;28;20435;-59
2023/09/18 10:30:12;;;;;;;4.80;1.80;;;;;;;;;;4975223;28;20437;-59
2023/09/18 10:32:40;;;;;;;2.07;1.80;;;;;;;;;;4973187;28;20484;-59
2023/09/18 10:35:11;;;;;;;3.03;1.67;;;;;;;;;;4974488;28;20526;-59
2023/09/18 10:37:44;;;;;;;2.30;1.50;;;;;;;;;;4973908;28;20867;-59
2023/09/18 10:40:10;;;;;;;2.13;1.30;;;;;;;;;;4974876;28;20556;-59
2023/09/18 10:42:40;;;;;;;1.83;1.60;;;;;;;;;;4974982;28;20437;-59
2023/09/18 10:45:07;;;;;;;1.77;1.67;;;;;;;;;;4974944;28;20499;-59
2023/09/18 10:47:34;;;;;;;1.53;1.43;;;;;;;;;;4974608;28;20551;-59
2023/09/18 10:50:01;;;;;;;1.50;1.30;;;;;;;;;;4974526;28;20448;-58
2023/09/18 10:52:29;;;;;;;1.30;1.20;;;;;;;;;;4974745;28;20441;-58
2023/09/18 10:54:58;;;;;;;2.40;1.23;;;;;;;;;;4973215;28;20473;-59
2023/09/18 10:57:24;;;;;;;3.70;1.63;;;;;;;;;;4974787;28;20416;-59
2023/09/18 10:59:50;;;;;;;1.47;1.37;;;;;;;;;;4974425;28;20422;-58
2023/09/18 11:02:17;;;;;;;1.67;1.20;;;;;;;;;;4974393;28;20878;-59
2023/09/18 11:04:44;;;;;;;3.50;1.10;;;;;;;;;;4974524;28;20414;-59
2023/09/18 11:07:19;;;;;;;2.23;1.37;;;;;;;;;;4974413;28;20473;-57
2023/09/18 11:09:46;;;;;;;1.50;1.40;;;;;;;;;;4974383;28;20441;-59
2023/09/18 11:12:12;;;;;;;1.40;1.30;;;;;;;;;;4974159;28;20813;-58
2023/09/18 11:14:49;;;;;;;7.80;1.43;;;;;;;;;;4973595;28;20418;-58
2023/09/18 11:17:31;;;;;;;3.57;1.40;;;;;;;;;;4974071;28;20993;-59
2023/09/18 11:20:15;;;;;;;1.37;1.27;;;;;;;;;;4974056;28;20425;-59
2023/09/18 11:22:46;;;;;;;2.10;1.33;;;;;;;;;;4974089;28;20420;-58
2023/09/18 11:25:31;;;;;;;1.60;1.43;;;;;;;;;;4974011;28;20834;-59
2023/09/18 11:28:00;;;;;;;4.40;1.67;;;;;;;;;;4974145;28;20423;-59
2023/09/18 11:30:26;;;;;;;2.93;1.23;;;;;;;;;;4973870;28;20416;-58
2023/09/18 11:32:52;;;;;;;2.70;1.20;;;;;;;;;;4973904;28;20947;-59
2023/09/18 11:35:19;;;;;;;1.50;1.40;;;;;;;;;;4972575;28;20491;-59
2023/09/18 11:37:45;;;;;;;5.50;1.20;;;;;;;;;;4973580;28;20441;-59
2023/09/18 11:40:37;;;;;;;1.73;1.50;;;;;;;;;;4973622;28;20423;-59
2023/09/18 11:43:25;;;;;;;1.30;1.20;;;;;;;;;;4973863;28;20449;-59
2023/09/18 11:45:51;;;;;;;1.47;1.20;;;;;;;;;;4973650;28;20939;-59
2023/09/18 11:48:23;;;;;;;2.10;0.87;;;;;;;;;;4973524;28;20443;-59
2023/09/18 11:50:50;;;;;;;1.17;1.17;;;;;;;;;;4973570;28;21010;-59
2023/09/18 11:53:19;;;;;;;2.00;1.47;;;;;;;;;;4973505;28;20430;-59
2023/09/18 11:55:46;;;;;;;2.57;1.00;;;;;;;;;;4973855;28;20557;-59
2023/09/18 11:58:12;;;;;;;1.43;1.33;;;;;;;;;;4973526;28;20413;-59
2023/09/18 12:00:45;;;;;;;3.37;1.70;;;;;;;;;;4973231;28;20414;-59
2023/09/18 12:03:25;;;;;;;1.33;1.23;;;;;;;;;;4973664;28;20414;-59
2023/09/18 12:05:59;;;;;;;1.80;1.20;;;;;;;;;;4973386;28;20424;-59
2023/09/18 12:08:30;;;;;;;4.97;1.90;;;;;;;;;;4973484;28;20928;-59
2023/09/18 12:10:56;;;;;;;7.30;1.20;;;;;;;;;;4973554;28;20413;-59
2023/09/18 12:13:25;;;;;;;1.90;1.03;;;;;;;;;;4973149;28;20782;-59
2023/09/18 12:15:56;;;;;;;1.20;1.10;;;;;;;;;;4973239;28;20535;-59
2023/09/18 12:18:25;;;;;;;2.20;1.07;;;;;;;;;;4973320;28;20395;-59
2023/09/18 12:20:51;;;;;;;5.13;1.07;;;;;;;;;;4973558;28;20410;-59
2023/09/18 12:23:21;;;;;;;2.10;0.80;;;;;;;;;;4973209;28;20407;-59
2023/09/18 12:25:50;;;;;;;5.63;1.27;;;;;;;;;;4974205;28;20480;-59
2023/09/18 12:28:16;;;;;;;2.20;0.97;;;;;;;;;;4976953;28;20425;-59
2023/09/18 12:30:46;;;;;;;3.23;1.27;;;;;;;;;;4977010;28;20425;-59
2023/09/18 12:33:12;;;;;;;1.33;1.00;;;;;;;;;;4976841;28;20456;-59
2023/09/18 12:35:40;;;;;;;2.20;2.03;;;;;;;;;;4976829;28;20961;-59
2023/09/18 12:38:18;;;;;;;4.57;2.97;;;;;;;;;;4976947;28;20520;-59
2023/09/18 12:40:47;;;;;;;1.00;1.00;;;;;;;;;;4977139;28;20391;-59
2023/09/18 12:43:15;;;;;;;6.93;1.10;;;;;;;;;;4976879;28;20467;-59
2023/09/18 12:45:41;;;;;;;1.83;1.03;;;;;;;;;;4977088;28;20462;-59
2023/09/18 12:48:07;;;;;;;0.93;0.93;;;;;;;;;;4976256;28;20442;-59
2023/09/18 12:50:35;;;;;;;0.97;0.97;;;;;;;;;;4976697;28;20487;-59
2023/09/18 12:53:15;;;;;;;1.43;1.00;;;;;;;;;;4976900;28;20422;-59
2023/09/18 12:55:42;;;;;;;1.53;0.90;;;;;;;;;;4976472;28;20478;-59
2023/09/18 12:58:11;;;;;;;1.00;0.87;;;;;;;;;;4976447;28;20406;-59
2023/09/18 13:00:37;;;;;;;2.30;1.53;;;;;;;;;;4975135;28;20474;-59
2023/09/18 13:03:04;;;;;;;1.07;0.97;;;;;;;;;;4975185;28;20467;-58
2023/09/18 13:05:33;;;;;;;4.60;1.20;;;;;;;;;;4976389;28;20438;-58
2023/09/18 13:08:04;;;;;;;1.50;1.40;;;;;;;;;;4976532;28;20493;-59
2023/09/18 13:10:40;;;;;;;0.93;0.93;;;;;;;;;;4976243;28;20410;-59
2023/09/18 13:13:09;;;;;;;1.30;1.20;;;;;;;;;;4976364;28;21019;-59
2023/09/18 13:15:35;;;;;;;4.50;1.30;;;;;;;;;;4975926;28;20466;-59
2023/09/18 13:18:19;;;;;;;1.03;1.03;;;;;;;;;;4976189;28;21106;-59
2023/09/18 13:20:45;;;;;;;3.37;1.30;;;;;;;;;;4976076;28;20419;-59
2023/09/18 13:23:11;;;;;;;0.80;0.80;;;;;;;;;;4975960;28;20959;-59
2023/09/18 13:25:40;;;;;;;0.90;0.90;;;;;;;;;;4976025;28;20415;-59
2023/09/18 13:28:07;;;;;;;1.90;1.07;;;;;;;;;;4975948;28;20445;-59
2023/09/18 13:30:38;;;;;;;1.53;1.10;;;;;;;;;;4976093;28;20479;-59
2023/09/18 13:33:16;;;;;;;5.33;1.40;;;;;;;;;;4975992;28;20560;-59
2023/09/18 13:35:43;;;;;;;1.30;1.30;;;;;;;;;;4974109;28;20985;-59
2023/09/18 13:38:11;;;;;;;1.47;0.93;;;;;;;;;;4975424;28;20441;-59
2023/09/18 13:40:39;;;;;;;3.77;0.90;;;;;;;;;;4974430;28;20949;-59
2023/09/18 13:43:06;;;;;;;2.03;1.23;;;;;;;;;;4975703;28;20411;-59
2023/09/18 13:45:32;;;;;;;3.17;1.00;;;;;;;;;;4975512;28;20470;-58
2023/09/18 13:47:59;;;;;;;1.63;1.20;;;;;;;;;;4975742;28;20437;-59
2023/09/18 13:50:25;;;;;;;3.23;1.10;;;;;;;;;;4975536;28;20443;-59
2023/09/18 13:52:56;;;;;;;5.67;1.37;;;;;;;;;;4975775;28;20425;-59
2023/09/18 13:55:22;;;;;;;0.97;0.97;;;;;;;;;;4975336;28;20468;-59
2023/09/18 13:57:49;;;;;;;5.97;1.20;;;;;;;;;;4975425;28;20407;-59
2023/09/18 14:00:15;;;;;;;0.90;0.90;;;;;;;;;;4975492;28;20452;-59
2023/09/18 14:02:41;;;;;;;2.77;1.07;;;;;;;;;;4975195;28;20420;-59
2023/09/18 14:05:10;;;;;;;2.83;0.87;;;;;;;;;;4975238;28;20937;-59
2023/09/18 14:07:38;;;;;;;3.23;0.87;;;;;;;;;;4975246;28;20496;-59
2023/09/18 14:10:06;;;;;;;1.47;1.13;;;;;;;;;;4975249;28;20843;-59
2023/09/18 14:12:32;;;;;;;10.40;1.60;;;;;;;;;;4974855;28;20451;-59
2023/09/18 14:14:59;;;;;;;3.73;1.40;;;;;;;;;;4975108;28;20422;-59
2023/09/18 14:17:27;;;;;;;1.17;0.97;;;;;;;;;;4974847;28;20915;-59
2023/09/18 14:19:53;;;;;;;4.03;1.30;;;;;;;;;;4974578;28;20977;-59
2023/09/18 14:22:19;;;;;;;1.40;1.00;;;;;;;;;;4974956;28;20443;-59
2023/09/18 14:24:45;;;;;;;1.50;1.40;;;;;;;;;;4974935;28;20442;-59
2023/09/18 14:27:14;;;;;;;1.10;1.07;;;;;;;;;;4973745;28;20806;-59
2023/09/18 14:29:40;;;;;;;4.90;1.43;;;;;;;;;;4974908;28;20792;-59
2023/09/18 14:32:08;;;;;;;2.43;1.17;;;;;;;;;;4974645;28;20422;-59
2023/09/18 14:34:35;;;;;;;1.27;1.10;;;;;;;;;;4974464;28;20425;-59
2023/09/18 14:37:03;;;;;;;4.00;1.30;;;;;;;;;;4974566;28;21037;-58
2023/09/18 14:39:30;;;;;;;2.10;1.33;;;;;;;;;;4975079;28;20411;-59
2023/09/18 14:41:56;;;;;;;1.37;1.20;;;;;;;;;;4974405;28;20489;-59
2023/09/18 14:44:22;;;;;;;1.40;1.30;;;;;;;;;;4974556;28;20830;-59